createdAt,value
2018-12-02T00:00:17.319Z,0.00
2018-12-02T00:01:17.306Z,0.00
2018-12-02T00:02:17.296Z,0.00
2018-12-02T00:03:17.285Z,0.00
2018-12-02T00:04:17.273Z,0.00
2018-12-02T00:05:17.267Z,0.00
2018-12-02T00:06:17.254Z,0.00
2018-12-02T00:07:17.240Z,0.00
2018-12-02T00:08:17.232Z,0.00
2018-12-02T00:09:17.224Z,0.00
2018-12-02T00:10:17.211Z,0.00
2018-12-02T00:11:17.200Z,0.00
2018-12-02T00:12:17.187Z,0.00
2018-12-02T00:13:17.177Z,0.00
2018-12-02T00:14:17.165Z,0.00
2018-12-02T00:15:17.158Z,0.00
2018-12-02T00:16:17.153Z,0.00
2018-12-02T00:17:17.137Z,0.00
2018-12-02T00:18:17.120Z,0.00
2018-12-02T00:19:17.153Z,0.00
2018-12-02T00:20:17.108Z,0.00
2018-12-02T00:21:17.095Z,0.00
2018-12-02T00:22:17.080Z,0.00
2018-12-02T00:23:17.068Z,0.00
2018-12-02T00:24:17.061Z,0.00
2018-12-02T00:25:17.046Z,0.00
2018-12-02T00:26:17.035Z,0.00
2018-12-02T00:27:17.029Z,0.00
2018-12-02T00:28:17.016Z,0.00
2018-12-02T00:29:17.007Z,0.00
2018-12-02T00:30:16.991Z,0.00
2018-12-02T00:31:16.986Z,0.00
2018-12-02T00:32:16.971Z,0.00
2018-12-02T00:33:16.960Z,0.00
2018-12-02T00:34:16.951Z,0.00
2018-12-02T00:35:16.939Z,0.00
2018-12-02T00:36:16.926Z,0.00
2018-12-02T00:37:16.920Z,0.00
2018-12-02T00:38:16.911Z,0.00
2018-12-02T00:39:16.897Z,0.00
2018-12-02T00:40:16.887Z,0.00
2018-12-02T00:41:16.876Z,0.00
2018-12-02T00:42:16.864Z,0.00
2018-12-02T00:43:16.852Z,0.00
2018-12-02T00:44:16.842Z,0.00
2018-12-02T00:45:16.831Z,0.00
2018-12-02T00:46:16.922Z,0.00
2018-12-02T00:47:16.811Z,0.00
2018-12-02T00:48:16.798Z,0.00
2018-12-02T00:49:16.790Z,0.00
2018-12-02T00:50:16.775Z,0.00
2018-12-02T00:51:16.767Z,0.00
2018-12-02T00:52:16.754Z,0.00
2018-12-02T00:53:16.743Z,0.00
2018-12-02T00:54:16.735Z,0.00
2018-12-02T00:55:16.723Z,0.00
2018-12-02T00:56:16.711Z,0.00
2018-12-02T00:57:16.702Z,0.00
2018-12-02T00:58:16.694Z,0.00
2018-12-02T00:59:16.679Z,0.00
2018-12-02T01:00:16.668Z,0.00
2018-12-02T01:01:16.656Z,0.00
2018-12-02T01:02:16.645Z,0.00
2018-12-02T01:03:16.636Z,0.00
2018-12-02T01:04:16.626Z,0.00
2018-12-02T01:05:16.651Z,0.00
2018-12-02T01:06:16.603Z,0.00
2018-12-02T01:07:16.593Z,0.00
2018-12-02T01:08:16.582Z,0.00
2018-12-02T01:09:16.572Z,0.00
2018-12-02T01:10:16.567Z,0.00
2018-12-02T01:11:16.549Z,0.00
2018-12-02T01:12:16.537Z,0.00
2018-12-02T01:13:16.528Z,0.00
2018-12-02T01:14:16.517Z,0.00
2018-12-02T01:15:16.509Z,0.00
2018-12-02T01:16:16.494Z,0.00
2018-12-02T01:17:16.485Z,0.00
2018-12-02T01:18:16.475Z,0.00
2018-12-02T01:19:16.463Z,0.00
2018-12-02T01:20:16.453Z,0.00
2018-12-02T01:21:16.443Z,0.00
2018-12-02T01:22:16.434Z,0.00
2018-12-02T01:23:16.421Z,0.00
2018-12-02T01:24:16.409Z,0.00
2018-12-02T01:25:16.399Z,0.00
2018-12-02T01:26:16.387Z,0.00
2018-12-02T01:27:16.376Z,0.00
2018-12-02T01:28:16.366Z,0.00
2018-12-02T01:29:16.358Z,0.00
2018-12-02T01:30:16.345Z,0.00
2018-12-02T01:31:16.335Z,0.00
2018-12-02T01:32:16.323Z,0.00
2018-12-02T01:33:16.314Z,0.00
2018-12-02T01:34:16.301Z,0.00
2018-12-02T01:35:16.290Z,0.00
2018-12-02T01:36:16.280Z,0.00
2018-12-02T01:37:16.271Z,0.00
2018-12-02T01:38:16.259Z,0.00
2018-12-02T01:39:16.248Z,0.00
2018-12-02T01:40:16.237Z,0.00
2018-12-02T01:41:16.226Z,0.00
2018-12-02T01:42:16.216Z,0.00
2018-12-02T01:43:16.205Z,0.00
2018-12-02T01:44:16.196Z,0.00
2018-12-02T01:45:16.182Z,0.00
2018-12-02T01:46:16.172Z,0.00
2018-12-02T01:47:16.160Z,0.00
2018-12-02T01:48:16.150Z,0.00
2018-12-02T01:49:16.139Z,0.00
2018-12-02T01:50:16.130Z,0.00
2018-12-02T01:51:16.121Z,0.00
2018-12-02T01:52:16.108Z,0.00
2018-12-02T01:53:16.097Z,0.00
2018-12-02T01:54:16.087Z,0.00
2018-12-02T01:55:16.078Z,0.00
2018-12-02T01:56:16.063Z,0.00
2018-12-02T01:57:16.052Z,0.00
2018-12-02T01:58:16.044Z,0.00
2018-12-02T01:59:16.030Z,0.00
2018-12-02T02:00:16.021Z,0.00
2018-12-02T02:01:16.011Z,0.00
2018-12-02T02:02:16.006Z,0.00
2018-12-02T02:03:15.990Z,0.00
2018-12-02T02:04:15.977Z,0.00
2018-12-02T02:05:15.970Z,0.00
2018-12-02T02:06:15.956Z,0.00
2018-12-02T02:07:15.944Z,0.00
2018-12-02T02:08:15.936Z,0.00
2018-12-02T02:09:15.925Z,0.00
2018-12-02T02:10:15.915Z,0.00
2018-12-02T02:11:15.903Z,0.00
2018-12-02T02:12:15.891Z,0.00
2018-12-02T02:13:15.886Z,0.00
2018-12-02T02:14:15.867Z,0.00
2018-12-02T02:15:15.857Z,0.00
2018-12-02T02:16:15.847Z,0.00
2018-12-02T02:17:15.837Z,0.00
2018-12-02T02:18:15.828Z,0.00
2018-12-02T02:19:15.815Z,0.00
2018-12-02T02:20:15.804Z,0.00
2018-12-02T02:21:15.794Z,0.00
2018-12-02T02:22:15.784Z,0.00
2018-12-02T02:23:15.772Z,0.00
2018-12-02T02:24:15.761Z,0.00
2018-12-02T02:25:15.756Z,0.00
2018-12-02T02:26:15.739Z,0.00
2018-12-02T02:27:15.738Z,0.00
2018-12-02T02:28:15.762Z,0.00
2018-12-02T02:29:15.710Z,0.00
2018-12-02T02:30:15.700Z,0.00
2018-12-02T02:31:15.687Z,0.00
2018-12-02T02:32:15.677Z,0.00
2018-12-02T02:33:15.665Z,0.00
2018-12-02T02:34:15.656Z,0.00
2018-12-02T02:35:15.645Z,0.00
2018-12-02T02:36:15.630Z,0.00
2018-12-02T02:37:15.623Z,0.00
2018-12-02T02:38:15.616Z,0.00
2018-12-02T02:39:15.610Z,0.00
2018-12-02T02:40:15.587Z,0.00
2018-12-02T02:41:15.578Z,0.00
2018-12-02T02:42:15.567Z,0.00
2018-12-02T02:43:15.559Z,0.00
2018-12-02T02:44:15.546Z,0.00
2018-12-02T02:45:15.534Z,0.00
2018-12-02T02:46:15.527Z,0.00
2018-12-02T02:47:15.523Z,0.00
2018-12-02T02:48:15.527Z,0.00
2018-12-02T02:49:15.491Z,0.00
2018-12-02T02:50:15.482Z,0.00
2018-12-02T02:51:15.470Z,0.00
2018-12-02T02:52:15.462Z,0.00
2018-12-02T02:53:15.449Z,0.00
2018-12-02T02:54:15.437Z,0.00
2018-12-02T02:55:15.429Z,0.00
2018-12-02T02:56:15.415Z,0.00
2018-12-02T02:57:15.405Z,0.00
2018-12-02T02:58:15.394Z,0.00
2018-12-02T02:59:15.382Z,0.00
2018-12-02T03:00:15.374Z,0.00
2018-12-02T03:01:15.363Z,0.00
2018-12-02T03:02:15.351Z,0.00
2018-12-02T03:03:15.341Z,0.00
2018-12-02T03:04:15.331Z,0.00
2018-12-02T03:05:15.321Z,0.00
2018-12-02T03:06:15.311Z,0.00
2018-12-02T03:07:15.301Z,0.00
2018-12-02T03:08:15.287Z,0.00
2018-12-02T03:09:15.277Z,0.00
2018-12-02T03:10:15.267Z,0.00
2018-12-02T03:11:15.260Z,0.00
2018-12-02T03:12:15.245Z,0.00
2018-12-02T03:13:15.232Z,0.00
2018-12-02T03:14:15.222Z,0.00
2018-12-02T03:15:15.214Z,0.00
2018-12-02T03:16:15.201Z,0.00
2018-12-02T03:17:15.191Z,0.00
2018-12-02T03:18:15.178Z,0.00
2018-12-02T03:19:15.168Z,0.00
2018-12-02T03:20:15.161Z,0.00
2018-12-02T03:21:15.148Z,0.00
2018-12-02T03:22:15.134Z,0.00
2018-12-02T03:23:15.124Z,0.00
2018-12-02T03:24:15.114Z,0.00
2018-12-02T03:25:15.102Z,0.00
2018-12-02T03:26:15.092Z,0.00
2018-12-02T03:27:15.080Z,0.00
2018-12-02T03:28:15.072Z,0.00
2018-12-02T03:29:15.060Z,0.00
2018-12-02T03:30:15.109Z,0.00
2018-12-02T03:31:15.037Z,0.00
2018-12-02T03:32:15.027Z,0.00
2018-12-02T03:33:15.021Z,0.00
2018-12-02T03:34:15.004Z,0.00
2018-12-02T03:35:14.997Z,0.00
2018-12-02T03:36:14.984Z,0.00
2018-12-02T03:37:14.974Z,0.00
2018-12-02T03:38:14.961Z,0.00
2018-12-02T03:39:14.954Z,0.00
2018-12-02T03:40:14.948Z,0.00
2018-12-02T03:41:14.929Z,0.00
2018-12-02T03:42:14.923Z,0.00
2018-12-02T03:43:14.908Z,0.00
2018-12-02T03:44:14.900Z,0.00
2018-12-02T03:45:14.889Z,0.00
2018-12-02T03:46:14.877Z,0.00
2018-12-02T03:47:14.865Z,0.00
2018-12-02T03:48:14.853Z,0.00
2018-12-02T03:49:14.845Z,0.00
2018-12-02T03:50:17.769Z,0.00
2018-12-02T03:51:14.819Z,0.00
2018-12-02T03:52:14.814Z,0.00
2018-12-02T03:53:14.802Z,0.00
2018-12-02T03:54:14.791Z,0.00
2018-12-02T03:55:14.780Z,0.00
2018-12-02T03:56:14.767Z,0.00
2018-12-02T03:57:14.757Z,0.00
2018-12-02T03:58:14.743Z,0.00
2018-12-02T03:59:14.734Z,0.00
2018-12-02T04:00:14.725Z,0.00
2018-12-02T04:01:14.714Z,0.00
2018-12-02T04:02:14.701Z,0.00
2018-12-02T04:03:14.692Z,0.00
2018-12-02T04:04:14.686Z,0.00
2018-12-02T04:05:14.670Z,0.00
2018-12-02T04:06:14.660Z,0.00
2018-12-02T04:07:14.649Z,0.00
2018-12-02T04:08:14.643Z,0.00
2018-12-02T04:09:14.627Z,0.00
2018-12-02T04:10:14.618Z,0.00
2018-12-02T04:11:14.606Z,0.00
2018-12-02T04:12:14.598Z,0.00
2018-12-02T04:13:14.582Z,0.00
2018-12-02T04:14:14.573Z,0.00
2018-12-02T04:15:14.563Z,0.00
2018-12-02T04:16:14.552Z,0.00
2018-12-02T04:17:14.552Z,0.00
2018-12-02T04:18:14.532Z,0.00
2018-12-02T04:19:14.519Z,0.00
2018-12-02T04:20:14.515Z,0.00
2018-12-02T04:21:14.497Z,0.00
2018-12-02T04:22:14.491Z,0.00
2018-12-02T04:23:14.476Z,0.00
2018-12-02T04:24:14.466Z,0.00
2018-12-02T04:25:14.452Z,0.00
2018-12-02T04:26:14.442Z,0.00
2018-12-02T04:27:14.433Z,0.00
2018-12-02T04:28:14.426Z,0.00
2018-12-02T04:29:14.411Z,0.00
2018-12-02T04:30:14.409Z,0.00
2018-12-02T04:31:14.391Z,0.00
2018-12-02T04:32:14.380Z,0.00
2018-12-02T04:33:14.370Z,0.00
2018-12-02T04:34:14.361Z,0.00
2018-12-02T04:35:14.356Z,0.00
2018-12-02T04:36:14.335Z,0.00
2018-12-02T04:37:14.330Z,0.00
2018-12-02T04:38:14.315Z,0.00
2018-12-02T04:39:14.302Z,0.00
2018-12-02T04:40:14.305Z,0.00
2018-12-02T04:41:14.288Z,0.00
2018-12-02T04:42:14.269Z,0.00
2018-12-02T04:43:14.261Z,0.00
2018-12-02T04:44:14.252Z,0.00
2018-12-02T04:45:14.240Z,0.00
2018-12-02T04:46:14.230Z,0.00
2018-12-02T04:47:14.216Z,0.00
2018-12-02T04:48:14.207Z,0.00
2018-12-02T04:49:14.194Z,0.00
2018-12-02T04:50:14.194Z,0.00
2018-12-02T04:51:14.173Z,0.00
2018-12-02T04:52:14.166Z,0.00
2018-12-02T04:53:14.150Z,0.00
2018-12-02T04:54:14.142Z,0.00
2018-12-02T04:55:14.132Z,0.00
2018-12-02T04:56:14.126Z,0.00
2018-12-02T04:57:14.112Z,0.00
2018-12-02T04:58:14.098Z,0.00
2018-12-02T04:59:14.089Z,0.00
2018-12-02T05:00:14.078Z,0.00
2018-12-02T05:01:14.064Z,0.00
2018-12-02T05:02:14.055Z,0.00
2018-12-02T05:03:14.047Z,0.00
2018-12-02T05:04:14.033Z,0.00
2018-12-02T05:05:14.021Z,0.00
2018-12-02T05:06:14.013Z,0.00
2018-12-02T05:07:14.002Z,0.00
2018-12-02T05:08:13.990Z,0.00
2018-12-02T05:09:13.978Z,0.00
2018-12-02T05:10:13.972Z,0.00
2018-12-02T05:11:13.957Z,0.00
2018-12-02T05:12:13.948Z,0.00
2018-12-02T05:13:13.935Z,0.00
2018-12-02T05:14:13.925Z,0.00
2018-12-02T05:15:13.916Z,0.00
2018-12-02T05:16:13.904Z,0.00
2018-12-02T05:17:13.898Z,0.00
2018-12-02T05:18:13.886Z,0.00
2018-12-02T05:19:13.873Z,0.00
2018-12-02T05:20:13.866Z,0.00
2018-12-02T05:21:13.850Z,0.00
2018-12-02T05:22:13.839Z,0.00
2018-12-02T05:23:13.827Z,0.00
2018-12-02T05:24:13.816Z,0.00
2018-12-02T05:25:17.387Z,0.00
2018-12-02T05:26:13.798Z,0.00
2018-12-02T05:27:13.784Z,0.00
2018-12-02T05:28:13.824Z,0.00
2018-12-02T05:29:13.762Z,0.00
2018-12-02T05:30:13.753Z,0.00
2018-12-02T05:31:13.742Z,0.00
2018-12-02T05:32:13.731Z,0.00
2018-12-02T05:33:13.720Z,0.00
2018-12-02T05:34:13.708Z,0.00
2018-12-02T05:35:13.699Z,0.00
2018-12-02T05:36:13.687Z,0.00
2018-12-02T05:37:13.678Z,0.00
2018-12-02T05:38:13.666Z,0.00
2018-12-02T05:39:13.655Z,0.00
2018-12-02T05:40:13.650Z,0.00
2018-12-02T05:41:13.637Z,0.00
2018-12-02T05:42:13.622Z,0.00
2018-12-02T05:43:13.613Z,0.00
2018-12-02T05:44:13.605Z,0.00
2018-12-02T05:45:13.595Z,0.00
2018-12-02T05:46:13.579Z,0.00
2018-12-02T05:47:13.571Z,0.00
2018-12-02T05:48:13.557Z,0.00
2018-12-02T05:49:13.545Z,0.00
2018-12-02T05:50:13.537Z,0.00
2018-12-02T05:51:13.526Z,0.00
2018-12-02T05:52:13.512Z,0.00
2018-12-02T05:53:13.505Z,0.00
2018-12-02T05:54:13.493Z,0.00
2018-12-02T05:55:13.483Z,0.00
2018-12-02T05:56:13.473Z,0.00
2018-12-02T05:57:13.459Z,0.00
2018-12-02T05:58:13.448Z,0.00
2018-12-02T05:59:13.440Z,0.00
2018-12-02T06:00:13.426Z,0.00
2018-12-02T06:01:13.423Z,0.00
2018-12-02T06:02:13.406Z,0.00
2018-12-02T06:03:13.395Z,0.00
2018-12-02T06:04:13.385Z,0.00
2018-12-02T06:05:13.374Z,0.00
2018-12-02T06:06:13.364Z,0.00
2018-12-02T06:07:13.353Z,0.00
2018-12-02T06:08:13.341Z,0.00
2018-12-02T06:09:13.330Z,0.00
2018-12-02T06:10:13.321Z,0.00
2018-12-02T06:11:13.323Z,0.00
2018-12-02T06:12:13.298Z,0.00
2018-12-02T06:13:13.291Z,0.00
2018-12-02T06:14:13.284Z,0.00
2018-12-02T06:15:13.267Z,0.00
2018-12-02T06:16:13.259Z,0.00
2018-12-02T06:17:13.249Z,0.00
2018-12-02T06:18:13.233Z,0.00
2018-12-02T06:19:13.224Z,0.00
2018-12-02T06:20:13.211Z,0.00
2018-12-02T06:21:13.200Z,0.00
2018-12-02T06:22:13.189Z,0.00
2018-12-02T06:23:13.182Z,0.00
2018-12-02T06:24:13.168Z,0.00
2018-12-02T06:25:13.157Z,0.00
2018-12-02T06:26:13.152Z,0.00
2018-12-02T06:27:13.137Z,0.00
2018-12-02T06:28:13.126Z,0.00
2018-12-02T06:29:13.117Z,0.00
2018-12-02T06:30:13.104Z,0.00
2018-12-02T06:31:13.097Z,0.00
2018-12-02T06:32:13.082Z,0.00
2018-12-02T06:33:13.071Z,0.00
2018-12-02T06:34:13.062Z,0.00
2018-12-02T06:35:13.052Z,0.00
2018-12-02T06:36:13.040Z,0.00
2018-12-02T06:37:13.030Z,0.00
2018-12-02T06:38:13.018Z,0.00
2018-12-02T06:39:13.009Z,0.00
2018-12-02T06:40:12.998Z,0.00
2018-12-02T06:41:12.988Z,0.00
2018-12-02T06:42:12.974Z,0.00
2018-12-02T06:43:12.965Z,0.00
2018-12-02T06:44:12.955Z,0.00
2018-12-02T06:45:12.944Z,4.00
2018-12-02T06:46:12.930Z,4.00
2018-12-02T06:47:12.921Z,0.00
2018-12-02T06:48:12.909Z,4.00
2018-12-02T06:49:12.900Z,4.00
2018-12-02T06:50:12.887Z,4.00
2018-12-02T06:51:12.877Z,4.00
2018-12-02T06:52:12.867Z,8.00
2018-12-02T06:53:12.857Z,8.00
2018-12-02T06:54:12.845Z,8.00
2018-12-02T06:55:12.836Z,12.00
2018-12-02T06:56:12.872Z,12.00
2018-12-02T06:57:12.812Z,16.00
2018-12-02T06:58:12.815Z,16.00
2018-12-02T06:59:12.789Z,20.00
2018-12-02T07:00:12.780Z,16.00
2018-12-02T07:01:12.769Z,20.00
2018-12-02T07:02:12.762Z,20.00
2018-12-02T07:03:12.746Z,24.00
2018-12-02T07:04:12.739Z,20.00
2018-12-02T07:05:12.726Z,24.00
2018-12-02T07:06:12.714Z,24.00
2018-12-02T07:07:12.707Z,24.00
2018-12-02T07:08:12.702Z,20.00
2018-12-02T07:09:12.683Z,24.00
2018-12-02T07:10:12.673Z,24.00
2018-12-02T07:11:12.662Z,28.00
2018-12-02T07:12:12.652Z,36.00
2018-12-02T07:13:12.640Z,40.00
2018-12-02T07:14:12.632Z,44.00
2018-12-02T07:15:12.616Z,36.00
2018-12-02T07:16:12.606Z,40.00
2018-12-02T07:17:12.596Z,40.00
2018-12-02T07:18:12.585Z,40.00
2018-12-02T07:19:12.576Z,48.00
2018-12-02T07:20:12.562Z,40.00
2018-12-02T07:21:12.552Z,48.00
2018-12-02T07:22:12.542Z,60.00
2018-12-02T07:23:12.530Z,72.00
2018-12-02T07:24:12.521Z,84.00
2018-12-02T07:25:12.510Z,92.00
2018-12-02T07:26:12.500Z,104.00
2018-12-02T07:27:12.487Z,116.00
2018-12-02T07:28:12.479Z,128.00
2018-12-02T07:29:12.466Z,136.00
2018-12-02T07:30:12.454Z,144.00
2018-12-02T07:31:12.446Z,148.00
2018-12-02T07:32:12.435Z,172.00
2018-12-02T07:33:12.424Z,176.00
2018-12-02T07:34:12.411Z,196.00
2018-12-02T07:35:12.403Z,224.00
2018-12-02T07:36:12.393Z,248.00
2018-12-02T07:37:12.381Z,264.00
2018-12-02T07:38:12.371Z,256.00
2018-12-02T07:39:12.359Z,224.00
2018-12-02T07:40:12.347Z,188.00
2018-12-02T07:41:12.385Z,172.00
2018-12-02T07:42:12.325Z,164.00
2018-12-02T07:43:12.318Z,148.00
2018-12-02T07:44:12.305Z,172.00
2018-12-02T07:45:12.296Z,192.00
2018-12-02T07:46:12.284Z,184.00
2018-12-02T07:47:12.273Z,168.00
2018-12-02T07:48:12.261Z,172.00
2018-12-02T07:49:12.251Z,184.00
2018-12-02T07:50:12.240Z,216.00
2018-12-02T07:51:12.228Z,248.00
2018-12-02T07:52:12.219Z,268.00
2018-12-02T07:53:12.209Z,304.00
2018-12-02T07:54:12.200Z,340.00
2018-12-02T07:55:12.188Z,352.00
2018-12-02T07:56:12.174Z,356.00
2018-12-02T07:57:12.163Z,352.00
2018-12-02T07:58:12.163Z,348.00
2018-12-02T07:59:12.141Z,384.00
2018-12-02T08:00:12.133Z,416.00
2018-12-02T08:01:12.121Z,440.00
2018-12-02T08:02:12.111Z,468.00
2018-12-02T08:03:12.100Z,496.00
2018-12-02T08:04:12.088Z,520.00
2018-12-02T08:05:12.077Z,560.00
2018-12-02T08:06:12.067Z,580.00
2018-12-02T08:07:12.061Z,588.00
2018-12-02T08:08:12.045Z,556.00
2018-12-02T08:09:12.035Z,488.00
2018-12-02T08:10:12.022Z,460.00
2018-12-02T08:11:12.015Z,456.00
2018-12-02T08:12:12.005Z,468.00
2018-12-02T08:13:11.991Z,492.00
2018-12-02T08:14:11.980Z,488.00
2018-12-02T08:15:11.969Z,528.00
2018-12-02T08:16:11.957Z,564.00
2018-12-02T08:17:11.948Z,588.00
2018-12-02T08:18:11.937Z,584.00
2018-12-02T08:19:11.925Z,600.00
2018-12-02T08:20:11.914Z,620.00
2018-12-02T08:21:11.904Z,692.00
2018-12-02T08:22:11.893Z,776.00
2018-12-02T08:23:11.881Z,880.00
2018-12-02T08:24:11.871Z,964.00
2018-12-02T08:25:11.859Z,1044.00
2018-12-02T08:26:11.853Z,1100.00
2018-12-02T08:27:11.839Z,1128.00
2018-12-02T08:28:11.830Z,1140.00
2018-12-02T08:29:11.819Z,1108.00
2018-12-02T08:30:11.807Z,1064.00
2018-12-02T08:31:11.794Z,1160.00
2018-12-02T08:32:11.957Z,1352.00
2018-12-02T08:33:11.775Z,1496.00
2018-12-02T08:34:11.764Z,1568.00
2018-12-02T08:35:11.753Z,1676.00
2018-12-02T08:36:11.743Z,1712.00
2018-12-02T08:37:11.730Z,1712.00
2018-12-02T08:38:11.723Z,1644.00
2018-12-02T08:39:11.709Z,1648.00
2018-12-02T08:40:11.699Z,1672.00
2018-12-02T08:41:11.687Z,1664.00
2018-12-02T08:42:11.674Z,1656.00
2018-12-02T08:43:11.672Z,1624.00
2018-12-02T08:44:11.660Z,1548.00
2018-12-02T08:45:11.643Z,1420.00
2018-12-02T08:46:11.634Z,1272.00
2018-12-02T08:47:11.622Z,1112.00
2018-12-02T08:48:11.610Z,1024.00
2018-12-02T08:49:11.601Z,916.00
2018-12-02T08:50:11.601Z,856.00
2018-12-02T08:51:11.584Z,912.00
2018-12-02T08:52:11.568Z,1020.00
2018-12-02T08:53:11.564Z,1036.00
2018-12-02T08:54:11.550Z,912.00
2018-12-02T08:55:11.535Z,832.00
2018-12-02T08:56:11.523Z,788.00
2018-12-02T08:57:11.515Z,808.00
2018-12-02T08:58:11.503Z,872.00
2018-12-02T08:59:11.491Z,948.00
2018-12-02T09:00:11.479Z,896.00
2018-12-02T09:01:11.471Z,812.00
2018-12-02T09:02:11.459Z,764.00
2018-12-02T09:03:11.446Z,740.00
2018-12-02T09:04:11.436Z,828.00
2018-12-02T09:05:11.428Z,936.00
2018-12-02T09:06:11.415Z,988.00
2018-12-02T09:07:11.409Z,1036.00
2018-12-02T09:08:11.396Z,1052.00
2018-12-02T09:09:11.382Z,1112.00
2018-12-02T09:10:11.377Z,1132.00
2018-12-02T09:11:11.361Z,1112.00
2018-12-02T09:12:11.352Z,1040.00
2018-12-02T09:13:11.341Z,948.00
2018-12-02T09:14:11.329Z,940.00
2018-12-02T09:15:11.319Z,964.00
2018-12-02T09:16:11.308Z,984.00
2018-12-02T09:17:11.296Z,960.00
2018-12-02T09:18:11.286Z,936.00
2018-12-02T09:19:11.285Z,940.00
2018-12-02T09:20:11.263Z,928.00
2018-12-02T09:21:11.252Z,916.00
2018-12-02T09:22:11.243Z,876.00
2018-12-02T09:23:11.236Z,856.00
2018-12-02T09:24:11.221Z,976.00
2018-12-02T09:25:11.214Z,1112.00
2018-12-02T09:26:11.200Z,1176.00
2018-12-02T09:27:11.190Z,1180.00
2018-12-02T09:28:11.179Z,1132.00
2018-12-02T09:29:11.167Z,1092.00
2018-12-02T09:30:11.160Z,1048.00
2018-12-02T09:31:11.177Z,944.00
2018-12-02T09:32:11.136Z,948.00
2018-12-02T09:33:11.125Z,940.00
2018-12-02T09:34:11.115Z,980.00
2018-12-02T09:35:11.108Z,1056.00
2018-12-02T09:36:11.090Z,1032.00
2018-12-02T09:37:11.082Z,1008.00
2018-12-02T09:38:11.071Z,1020.00
2018-12-02T09:39:11.058Z,1028.00
2018-12-02T09:40:11.048Z,1064.00
2018-12-02T09:41:11.040Z,1100.00
2018-12-02T09:42:11.025Z,1112.00
2018-12-02T09:43:11.017Z,1128.00
2018-12-02T09:44:11.006Z,1112.00
2018-12-02T09:45:10.998Z,1096.00
2018-12-02T09:46:10.982Z,1052.00
2018-12-02T09:47:10.972Z,1136.00
2018-12-02T09:48:10.962Z,1224.00
2018-12-02T09:49:10.951Z,1196.00
2018-12-02T09:50:10.942Z,1088.00
2018-12-02T09:51:10.937Z,1024.00
2018-12-02T09:52:10.918Z,1056.00
2018-12-02T09:53:10.906Z,1128.00
2018-12-02T09:54:10.902Z,1156.00
2018-12-02T09:55:10.887Z,1188.00
2018-12-02T09:56:10.874Z,1284.00
2018-12-02T09:57:10.865Z,1356.00
2018-12-02T09:58:10.855Z,1416.00
2018-12-02T09:59:10.842Z,1368.00
2018-12-02T10:00:10.832Z,1372.00
2018-12-02T10:01:10.822Z,1412.00
2018-12-02T10:02:10.811Z,1408.00
2018-12-02T10:03:10.812Z,1332.00
2018-12-02T10:04:10.788Z,1288.00
2018-12-02T10:05:10.780Z,1316.00
2018-12-02T10:06:10.766Z,1296.00
2018-12-02T10:07:10.757Z,1292.00
2018-12-02T10:08:10.747Z,1292.00
2018-12-02T10:09:10.737Z,1304.00
2018-12-02T10:10:10.725Z,1356.00
2018-12-02T10:11:10.714Z,1364.00
2018-12-02T10:12:10.703Z,1340.00
2018-12-02T10:13:10.696Z,1304.00
2018-12-02T10:14:10.682Z,1320.00
2018-12-02T10:15:10.670Z,1324.00
2018-12-02T10:16:15.494Z,1372.00
2018-12-02T10:17:10.648Z,1492.00
2018-12-02T10:18:10.702Z,1612.00
2018-12-02T10:19:10.628Z,1684.00
2018-12-02T10:20:10.617Z,1660.00
2018-12-02T10:21:10.607Z,1616.00
2018-12-02T10:22:10.610Z,1508.00
2018-12-02T10:23:10.582Z,1436.00
2018-12-02T10:24:10.572Z,1464.00
2018-12-02T10:25:10.568Z,1576.00
2018-12-02T10:26:10.556Z,1684.00
2018-12-02T10:27:10.539Z,1652.00
2018-12-02T10:28:10.536Z,1492.00
2018-12-02T10:29:10.523Z,1380.00
2018-12-02T10:30:10.509Z,1392.00
2018-12-02T10:31:10.497Z,1532.00
2018-12-02T10:32:12.485Z,1608.00
2018-12-02T10:33:10.527Z,1676.00
2018-12-02T10:34:10.466Z,1612.00
2018-12-02T10:35:10.457Z,1500.00
2018-12-02T10:36:10.444Z,1600.00
2018-12-02T10:37:10.434Z,1600.00
2018-12-02T10:38:10.422Z,1500.00
2018-12-02T10:39:10.409Z,1624.00
2018-12-02T10:40:10.402Z,1692.00
2018-12-02T10:41:10.390Z,1716.00
2018-12-02T10:42:10.378Z,1748.00
2018-12-02T10:43:10.371Z,1716.00
2018-12-02T10:44:10.357Z,1544.00
2018-12-02T10:45:10.346Z,1400.00
2018-12-02T10:46:10.335Z,1400.00
2018-12-02T10:47:10.326Z,1436.00
2018-12-02T10:48:10.313Z,1484.00
2018-12-02T10:49:10.304Z,1516.00
2018-12-02T10:50:10.292Z,1500.00
2018-12-02T10:51:10.280Z,1608.00
2018-12-02T10:52:10.270Z,1860.00
2018-12-02T10:53:10.262Z,2004.00
2018-12-02T10:54:10.251Z,2200.00
2018-12-02T10:55:10.237Z,2516.00
2018-12-02T10:56:10.229Z,2808.00
2018-12-02T10:57:10.218Z,3104.00
2018-12-02T10:58:10.206Z,3512.00
2018-12-02T10:59:10.193Z,3628.00
2018-12-02T11:00:10.184Z,3556.00
2018-12-02T11:01:10.177Z,3196.00
2018-12-02T11:02:10.167Z,2856.00
2018-12-02T11:03:10.153Z,2708.00
2018-12-02T11:04:10.140Z,2748.00
2018-12-02T11:05:10.131Z,2572.00
2018-12-02T11:06:10.119Z,2320.00
2018-12-02T11:07:10.109Z,1892.00
2018-12-02T11:08:10.098Z,1684.00
2018-12-02T11:09:10.088Z,1592.00
2018-12-02T11:10:10.077Z,1568.00
2018-12-02T11:11:10.064Z,1556.00
2018-12-02T11:12:10.062Z,1432.00
2018-12-02T11:13:10.044Z,1416.00
2018-12-02T11:14:10.034Z,1444.00
2018-12-02T11:15:10.020Z,1268.00
2018-12-02T11:16:10.011Z,1364.00
2018-12-02T11:17:10.000Z,1792.00
2018-12-02T11:18:09.991Z,1980.00
2018-12-02T11:19:09.979Z,2012.00
2018-12-02T11:20:09.967Z,1964.00
2018-12-02T11:21:09.955Z,1908.00
2018-12-02T11:22:09.946Z,1796.00
2018-12-02T11:23:09.933Z,1732.00
2018-12-02T11:24:09.924Z,1768.00
2018-12-02T11:25:09.915Z,1956.00
2018-12-02T11:26:09.902Z,2180.00
2018-12-02T11:27:09.890Z,2312.00
2018-12-02T11:28:09.883Z,2500.00
2018-12-02T11:29:09.867Z,2740.00
2018-12-02T11:30:09.866Z,2808.00
2018-12-02T11:31:09.848Z,2576.00
2018-12-02T11:32:09.838Z,2196.00
2018-12-02T11:33:09.826Z,2112.00
2018-12-02T11:34:09.815Z,2076.00
2018-12-02T11:35:09.804Z,2040.00
2018-12-02T11:36:09.795Z,2300.00
2018-12-02T11:37:09.783Z,2292.00
2018-12-02T11:38:09.775Z,2128.00
2018-12-02T11:39:09.760Z,1984.00
2018-12-02T11:40:09.750Z,2040.00
2018-12-02T11:41:09.740Z,1864.00
2018-12-02T11:42:09.727Z,2088.00
2018-12-02T11:43:09.719Z,2392.00
2018-12-02T11:44:09.706Z,2708.00
2018-12-02T11:45:09.697Z,2612.00
2018-12-02T11:46:09.683Z,2400.00
2018-12-02T11:47:09.674Z,2080.00
2018-12-02T11:48:09.666Z,1784.00
2018-12-02T11:49:09.685Z,1844.00
2018-12-02T11:50:09.641Z,2000.00
2018-12-02T11:51:09.631Z,2008.00
2018-12-02T11:52:09.618Z,1960.00
2018-12-02T11:53:09.610Z,1924.00
2018-12-02T11:54:09.599Z,1592.00
2018-12-02T11:55:09.586Z,1564.00
2018-12-02T11:56:09.575Z,1932.00
2018-12-02T11:57:09.564Z,1904.00
2018-12-02T11:58:09.557Z,1776.00
2018-12-02T11:59:09.542Z,1608.00
2018-12-02T12:00:09.533Z,1656.00
2018-12-02T12:01:09.522Z,1724.00
2018-12-02T12:02:09.511Z,1764.00
2018-12-02T12:03:09.500Z,1752.00
2018-12-02T12:04:09.489Z,1556.00
2018-12-02T12:05:09.478Z,1516.00
2018-12-02T12:06:09.468Z,1564.00
2018-12-02T12:07:09.458Z,1380.00
2018-12-02T12:08:09.444Z,1328.00
2018-12-02T12:09:09.436Z,1420.00
2018-12-02T12:10:09.424Z,1432.00
2018-12-02T12:11:09.414Z,1292.00
2018-12-02T12:12:09.401Z,1196.00
2018-12-02T12:13:09.389Z,1092.00
2018-12-02T12:14:09.381Z,980.00
2018-12-02T12:15:09.370Z,1092.00
2018-12-02T12:16:09.360Z,1340.00
2018-12-02T12:17:09.346Z,1468.00
2018-12-02T12:18:09.337Z,1560.00
2018-12-02T12:19:09.324Z,1552.00
2018-12-02T12:20:09.317Z,1816.00
2018-12-02T12:21:09.306Z,1852.00
2018-12-02T12:22:09.297Z,1844.00
2018-12-02T12:23:09.282Z,1740.00
2018-12-02T12:24:09.270Z,1472.00
2018-12-02T12:25:09.260Z,1708.00
2018-12-02T12:26:09.249Z,1912.00
2018-12-02T12:27:09.239Z,1872.00
2018-12-02T12:28:09.229Z,1712.00
2018-12-02T12:29:09.217Z,1580.00
2018-12-02T12:30:09.205Z,1476.00
2018-12-02T12:31:09.207Z,1684.00
2018-12-02T12:32:09.184Z,2180.00
2018-12-02T12:33:09.176Z,2500.00
2018-12-02T12:34:09.161Z,2220.00
2018-12-02T12:35:09.155Z,2000.00
2018-12-02T12:36:09.140Z,1924.00
2018-12-02T12:37:09.131Z,1848.00
2018-12-02T12:38:09.117Z,1748.00
2018-12-02T12:39:09.107Z,1596.00
2018-12-02T12:40:09.097Z,1392.00
2018-12-02T12:41:09.085Z,1252.00
2018-12-02T12:42:09.077Z,1184.00
2018-12-02T12:43:09.069Z,1136.00
2018-12-02T12:44:09.054Z,1024.00
2018-12-02T12:45:09.044Z,932.00
2018-12-02T12:46:09.030Z,836.00
2018-12-02T12:47:09.019Z,744.00
2018-12-02T12:48:09.012Z,724.00